Time;durP1;ratioP1;P1;durP2;ratioP2;P2;SDS_P1;SDS_P2;PMS_P1;PMS_P2;Temp;Humidity;BMP_temperature;BMP_pressure;BME280_temperature;BME280_humidity;BME280_pressure;Samples;Min_cycle;Max_cycle;Signal;HPM_P1;HPM_P2
2023/06/13 00:00:44;;;;;;;11.60;7.20;;;;;;;21.64;38.30;101274.13;5080083;28;20516;-69
2023/06/13 00:03:11;;;;;;;8.77;7.00;;;;;;;21.70;38.55;101294.97;5084719;28;20028;-69
2023/06/13 00:05:37;;;;;;;8.52;7.32;;;;;;;21.67;38.64;101295.16;5078675;28;20024;-69
2023/06/13 00:08:03;;;;;;;9.82;7.38;;;;;;;21.65;38.66;101286.47;5080817;28;20108;-69
2023/06/13 00:10:28;;;;;;;12.00;7.20;;;;;;;21.61;39.23;101300.00;5071049;28;20044;-69
2023/06/13 00:12:53;;;;;;;11.18;7.20;;;;;;;21.56;38.99;101289.69;5072677;28;20029;-69
2023/06/13 00:15:19;;;;;;;10.02;7.68;;;;;;;21.46;38.69;101281.44;5082121;28;20471;-69
2023/06/13 00:17:47;;;;;;;10.25;7.90;;;;;;;21.40;38.97;101291.59;5083205;28;20057;-69
2023/06/13 00:20:13;;;;;;;9.68;7.20;;;;;;;21.28;38.34;101288.69;5081330;28;20525;-70
2023/06/13 00:22:38;;;;;;;8.98;6.95;;;;;;;21.20;38.55;101284.81;5083572;28;20040;-69
2023/06/13 00:25:04;;;;;;;13.48;7.13;;;;;;;21.16;38.60;101280.66;5078405;28;20470;-69
2023/06/13 00:27:31;;;;;;;8.85;7.35;;;;;;;21.10;39.22;101284.53;5083298;28;20483;-69
2023/06/13 00:29:56;;;;;;;9.73;6.63;;;;;;;21.11;39.18;101280.06;5083217;28;20094;-70
2023/06/13 00:32:21;;;;;;;10.88;7.13;;;;;;;21.05;38.19;101278.63;5081846;28;20625;-69
2023/06/13 00:34:47;;;;;;;9.40;6.57;;;;;;;20.95;39.23;101272.19;5080995;28;20111;-69
2023/06/13 00:37:13;;;;;;;10.32;6.88;;;;;;;20.90;38.98;101274.28;5080143;28;20097;-69
2023/06/13 00:39:39;;;;;;;9.40;6.88;;;;;;;20.82;38.18;101280.00;5079642;28;20066;-70
2023/06/13 00:42:06;;;;;;;12.80;6.90;;;;;;;20.85;39.29;101279.00;5081149;28;20094;-69
2023/06/13 00:44:32;;;;;;;8.02;6.57;;;;;;;20.80;38.81;101288.06;5071327;28;20171;-70
2023/06/13 00:46:58;;;;;;;11.70;7.30;;;;;;;20.75;39.48;101278.69;5086299;28;20024;-70
2023/06/13 00:49:25;;;;;;;9.10;6.43;;;;;;;20.68;39.42;101283.50;5082219;28;20032;-69
2023/06/13 00:51:51;;;;;;;10.27;6.72;;;;;;;20.58;40.37;101277.03;5084762;28;20130;-69
2023/06/13 00:54:18;;;;;;;8.50;5.85;;;;;;;20.60;39.69;101284.88;5080277;28;20031;-69
2023/06/13 00:56:45;;;;;;;12.80;7.07;;;;;;;20.46;40.46;101283.00;5083164;28;20029;-69
2023/06/13 00:59:12;;;;;;;9.45;6.50;;;;;;;20.41;40.36;101271.84;5085460;28;20024;-69
2023/06/13 01:01:40;;;;;;;8.95;6.32;;;;;;;20.43;40.99;101288.47;5079376;28;20055;-69
2023/06/13 01:04:07;;;;;;;9.07;6.78;;;;;;;20.38;40.71;101285.25;5085008;28;20039;-69
2023/06/13 01:06:40;;;;;;;7.72;6.45;;;;;;;20.33;42.12;101280.19;5084056;28;20039;-69
2023/06/13 01:09:06;;;;;;;;;;;;;;;20.35;40.05;101276.53;5075179;28;20036;-69
2023/06/13 01:11:45;;;;;;;8.23;5.70;;;;;;;20.23;41.05;101266.63;5074438;28;20004;-69
2023/06/13 01:14:31;;;;;;;7.45;5.90;;;;;;;20.19;40.76;101269.56;5069661;28;20020;-69
2023/06/13 01:17:10;;;;;;;10.23;6.10;;;;;;;20.14;41.55;101271.59;5081399;28;20078;-69
2023/06/13 01:19:41;;;;;;;9.65;5.97;;;;;;;20.04;41.51;101273.91;5077715;28;20447;-69
2023/06/13 01:22:18;;;;;;;12.07;6.43;;;;;;;20.00;41.08;101275.88;5075488;28;20411;-69
2023/06/13 01:24:53;;;;;;;7.50;5.63;;;;;;;19.94;41.15;101270.06;5076024;28;20032;-69
2023/06/13 01:27:18;;;;;;;10.60;6.80;;;;;;;19.92;41.93;101269.31;5075809;28;20162;-69
2023/06/13 01:29:45;;;;;;;9.73;6.32;;;;;;;19.87;41.93;101269.56;5080863;28;20103;-69
2023/06/13 01:32:11;;;;;;;10.35;5.90;;;;;;;19.82;43.36;101266.34;5067898;28;20025;-69
2023/06/13 01:34:37;;;;;;;7.82;5.80;;;;;;;19.70;42.47;101264.38;5083684;28;20040;-69
2023/06/13 01:37:02;;;;;;;7.00;6.30;;;;;;;19.68;43.01;101264.44;5089372;28;20024;-69
2023/06/13 01:39:28;;;;;;;10.43;6.20;;;;;;;19.68;44.83;101276.81;5079262;28;20032;-69
2023/06/13 01:41:53;;;;;;;6.30;5.70;;;;;;;19.62;43.12;101270.06;5080024;28;20384;-69
2023/06/13 01:44:20;;;;;;;13.13;6.43;;;;;;;19.58;43.17;101268.47;5081012;28;20385;-70
2023/06/13 01:47:05;;;;;;;13.27;6.35;;;;;;;19.55;42.88;101273.94;5083769;28;20488;-70
2023/06/13 01:49:51;;;;;;;7.93;6.13;;;;;;;19.48;42.75;101273.41;5085636;28;20111;-69
2023/06/13 01:52:51;;;;;;;8.57;6.45;;;;;;;19.45;43.38;101272.72;5073644;28;20055;-70
2023/06/13 01:55:21;;;;;;;7.43;6.18;;;;;;;19.31;43.45;101271.69;5059589;28;20178;-69
2023/06/13 01:57:59;;;;;;;7.68;6.07;;;;;;;19.32;43.90;101261.94;5082508;28;20869;-69
2023/06/13 02:00:25;;;;;;;9.50;5.93;;;;;;;19.25;44.84;101266.72;5085791;28;20142;-69
2023/06/13 02:02:51;;;;;;;9.20;6.00;;;;;;;19.21;43.06;101261.69;5088250;28;20181;-69
2023/06/13 02:05:18;;;;;;;7.88;6.22;;;;;;;19.20;44.03;101263.47;5086397;28;20499;-69
2023/06/13 02:07:44;;;;;;;8.23;6.03;;;;;;;19.20;43.35;101271.41;5087927;28;20387;-69
2023/06/13 02:10:09;;;;;;;11.88;6.30;;;;;;;19.18;43.76;101260.91;5078440;28;20034;-69
2023/06/13 02:12:35;;;;;;;7.15;5.85;;;;;;;19.14;43.77;101250.59;5079576;28;20031;-70
2023/06/13 02:15:02;;;;;;;9.55;5.80;;;;;;;19.14;44.25;101269.09;5075358;28;20073;-70
2023/06/13 02:17:27;;;;;;;8.07;6.50;;;;;;;19.07;43.98;101267.69;5090301;28;20047;-69
2023/06/13 02:19:53;;;;;;;8.07;5.78;;;;;;;19.07;44.03;101267.69;5084054;28;20059;-70
2023/06/13 02:22:18;;;;;;;8.38;6.10;;;;;;;19.05;43.68;101267.75;5084754;28;20127;-69
2023/06/13 02:24:43;;;;;;;9.20;5.93;;;;;;;18.98;43.96;101260.25;5082551;28;20389;-70
2023/06/13 02:27:09;;;;;;;10.15;6.18;;;;;;;18.94;44.62;101257.75;5085537;28;20054;-70
2023/06/13 02:29:35;;;;;;;7.93;6.00;;;;;;;18.90;45.17;101255.34;5078822;28;20028;-70
2023/06/13 02:32:01;;;;;;;8.85;6.18;;;;;;;18.88;44.71;101265.16;5087298;28;20040;-69
2023/06/13 02:34:26;;;;;;;8.77;5.97;;;;;;;18.83;44.87;101264.53;5089945;28;20038;-69
2023/06/13 02:36:51;;;;;;;10.40;6.50;;;;;;;18.82;45.50;101266.31;5080702;28;20029;-70
2023/06/13 02:39:17;;;;;;;8.93;6.30;;;;;;;18.80;45.21;101268.19;5081605;28;20383;-69
2023/06/13 02:41:42;;;;;;;9.80;6.15;;;;;;;18.78;45.34;101262.13;5090820;28;20039;-69
2023/06/13 02:44:07;;;;;;;8.07;5.95;;;;;;;18.74;44.67;101272.91;5076496;28;20028;-69
2023/06/13 02:46:33;;;;;;;8.40;6.30;;;;;;;18.76;45.45;101282.47;5083726;28;20107;-69
2023/06/13 02:48:59;;;;;;;9.43;5.97;;;;;;;18.69;45.04;101270.47;5082649;28;20024;-69
2023/06/13 02:51:24;;;;;;;10.13;6.30;;;;;;;18.63;45.15;101269.00;5086732;28;20483;-69
2023/06/13 02:53:49;;;;;;;6.75;5.85;;;;;;;18.57;45.86;101271.09;5076944;28;20118;-70
2023/06/13 02:56:15;;;;;;;9.55;6.45;;;;;;;18.51;46.26;101266.09;5083074;28;20028;-70
2023/06/13 02:58:40;;;;;;;11.48;6.00;;;;;;;18.49;46.21;101267.06;5083222;28;20081;-70
2023/06/13 03:01:06;;;;;;;10.02;5.82;;;;;;;18.51;45.83;101271.38;5075460;28;20354;-69
2023/06/13 03:03:32;;;;;;;10.88;6.55;;;;;;;18.47;45.10;101270.69;5072167;28;20040;-69
2023/06/13 03:05:59;;;;;;;10.68;6.18;;;;;;;18.35;44.57;101250.19;5083018;28;20024;-70
2023/06/13 03:08:26;;;;;;;8.57;6.25;;;;;;;18.39;45.40;101271.09;5069085;28;20384;-70
2023/06/13 03:10:52;;;;;;;10.27;6.45;;;;;;;18.40;45.70;101267.50;5081250;28;20423;-70
2023/06/13 03:13:18;;;;;;;10.00;6.40;;;;;;;18.38;45.82;101266.75;5074766;28;20025;-69
2023/06/13 03:15:45;;;;;;;8.25;6.18;;;;;;;18.40;45.85;101275.41;5082308;28;20103;-70
2023/06/13 03:18:11;;;;;;;8.90;6.70;;;;;;;18.31;47.04;101273.25;5078666;28;20024;-69
2023/06/13 03:20:37;;;;;;;7.47;6.50;;;;;;;18.28;45.71;101272.53;5079659;28;20094;-70
2023/06/13 03:23:02;;;;;;;10.73;6.20;;;;;;;18.23;46.52;101273.59;5079726;28;20407;-69
2023/06/13 03:25:28;;;;;;;10.88;6.63;;;;;;;18.17;46.47;101275.69;5070158;28;20063;-69
2023/06/13 03:27:53;;;;;;;9.10;6.38;;;;;;;18.15;46.55;101267.00;5072486;28;20119;-70
2023/06/13 03:30:18;;;;;;;7.82;6.28;;;;;;;18.19;47.08;101263.28;5083642;28;20488;-70
2023/06/13 03:32:44;;;;;;;8.30;6.75;;;;;;;18.15;47.51;101264.38;5089818;28;20479;-70
2023/06/13 03:35:09;;;;;;;11.52;6.80;;;;;;;18.08;47.23;101262.94;5082457;28;20035;-69
2023/06/13 03:37:35;;;;;;;9.40;6.43;;;;;;;18.00;48.49;101263.31;5080636;28;20384;-70
2023/06/13 03:40:00;;;;;;;11.32;6.38;;;;;;;17.99;48.26;101262.47;5073278;28;20055;-70
2023/06/13 03:42:25;;;;;;;10.88;6.72;;;;;;;17.98;49.02;101271.31;5083701;28;20032;-69
2023/06/13 03:44:50;;;;;;;16.95;6.10;;;;;;;17.90;49.19;101270.81;5078726;28;20028;-69
2023/06/13 03:47:16;;;;;;;9.10;6.65;;;;;;;17.87;48.69;101257.75;5080394;28;20086;-69
2023/06/13 03:49:42;;;;;;;8.95;6.65;;;;;;;17.73;48.45;101250.47;5083286;28;20028;-69
2023/06/13 03:52:07;;;;;;;10.88;6.70;;;;;;;17.78;49.20;101260.81;5078762;28;20031;-69
2023/06/13 03:54:33;;;;;;;10.00;7.13;;;;;;;17.78;48.68;101263.47;5084626;28;20032;-69
2023/06/13 03:56:58;;;;;;;9.00;6.57;;;;;;;17.84;48.89;101267.59;5085396;28;20518;-69
2023/06/13 03:59:24;;;;;;;10.13;6.97;;;;;;;17.81;49.04;101276.50;5075544;28;20024;-69
2023/06/13 04:01:49;;;;;;;10.48;6.55;;;;;;;17.78;48.57;101271.38;5078464;28;20384;-69
2023/06/13 04:04:15;;;;;;;11.27;6.80;;;;;;;17.79;48.64;101267.84;5079238;28;20036;-69
2023/06/13 04:06:47;;;;;;;9.38;6.80;;;;;;;17.84;49.92;101265.81;5077470;28;20067;-69
2023/06/13 04:09:12;;;;;;;9.48;6.93;;;;;;;17.85;49.42;101275.44;5083986;28;20024;-69
2023/06/13 04:11:37;;;;;;;10.10;6.40;;;;;;;17.86;49.03;101271.88;5083347;28;20032;-69
2023/06/13 04:14:03;;;;;;;9.95;6.95;;;;;;;17.92;48.85;101268.09;5083226;28;20047;-69
2023/06/13 04:16:28;;;;;;;13.43;7.10;;;;;;;17.83;49.34;101250.94;5082765;28;20036;-69
2023/06/13 04:18:57;;;;;;;10.23;6.90;;;;;;;17.95;49.63;101266.19;5080011;28;20025;-69
2023/06/13 04:21:24;;;;;;;8.05;6.35;;;;;;;18.01;48.80;101276.41;5086101;28;20040;-69
2023/06/13 04:23:50;;;;;;;11.15;7.25;;;;;;;18.04;49.46;101274.56;5073270;28;20082;-69
2023/06/13 04:26:17;;;;;;;12.45;7.15;;;;;;;18.06;49.48;101270.09;5086244;28;20024;-69
2023/06/13 04:28:43;;;;;;;12.15;7.15;;;;;;;18.15;49.72;101272.28;5075645;28;20131;-69
2023/06/13 04:31:10;;;;;;;12.85;6.50;;;;;;;18.18;50.66;101269.47;5078553;28;20110;-69
2023/06/13 04:33:38;;;;;;;12.15;7.20;;;;;;;18.13;49.28;101274.13;5082616;28;20426;-69
2023/06/13 04:36:05;;;;;;;14.52;7.10;;;;;;;18.19;49.00;101285.25;5085388;28;20084;-69
2023/06/13 04:38:34;;;;;;;19.02;7.30;;;;;;;18.17;49.28;101284.47;5081325;28;20064;-69
2023/06/13 04:41:00;;;;;;;10.30;7.40;;;;;;;18.21;49.85;101290.44;5075999;28;20363;-69
2023/06/13 04:43:27;;;;;;;9.48;7.10;;;;;;;18.21;49.36;101291.31;5084583;28;20024;-69
2023/06/13 04:45:55;;;;;;;11.50;7.10;;;;;;;18.22;49.63;101281.63;5078799;28;20020;-69
2023/06/13 04:48:25;;;;;;;15.18;8.10;;;;;;;18.24;49.98;101291.13;5078542;28;20028;-70
2023/06/13 04:50:50;;;;;;;9.98;7.13;;;;;;;18.19;48.50;101277.34;5073232;28;20036;-69
2023/06/13 04:53:16;;;;;;;15.32;7.97;;;;;;;18.27;48.25;101286.66;5084024;28;20031;-69
2023/06/13 04:55:42;;;;;;;11.38;7.43;;;;;;;18.34;49.35;101296.84;5081580;28;20375;-69
2023/06/13 04:58:07;;;;;;;11.95;7.15;;;;;;;18.38;48.87;101297.56;5072243;28;20115;-69
2023/06/13 05:00:32;;;;;;;13.80;7.15;;;;;;;18.38;48.99;101289.66;5078071;28;20111;-69
2023/06/13 05:03:00;;;;;;;10.75;7.57;;;;;;;18.40;49.70;101299.19;5066922;28;20028;-69
2023/06/13 05:05:25;;;;;;;10.57;7.55;;;;;;;18.44;48.34;101305.16;5083122;28;20020;-69
2023/06/13 05:07:57;;;;;;;8.60;7.25;;;;;;;18.47;49.57;101292.69;5068806;28;20090;-69
2023/06/13 05:10:23;;;;;;;16.52;7.70;;;;;;;18.51;48.75;101300.44;5076744;28;20187;-69
2023/06/13 05:12:49;;;;;;;10.73;7.38;;;;;;;18.53;49.15;101301.22;5061796;28;20101;-69
2023/06/13 05:15:16;;;;;;;11.55;7.30;;;;;;;18.56;48.64;101303.72;5070662;28;20164;-69
2023/06/13 05:17:41;;;;;;;9.93;7.13;;;;;;;18.60;48.92;101294.69;5074482;28;20017;-69
2023/06/13 05:20:07;;;;;;;11.13;6.93;;;;;;;18.64;48.08;101304.19;5079768;28;20028;-69
2023/06/13 05:22:32;;;;;;;13.20;8.20;;;;;;;18.71;47.13;101308.25;5081154;28;20020;-69
2023/06/13 05:24:59;;;;;;;11.23;7.75;;;;;;;18.77;47.41;101301.81;5079378;28;20023;-69
2023/06/13 05:27:26;;;;;;;15.93;7.57;;;;;;;18.82;48.94;101305.94;5078509;28;20044;-69
2023/06/13 05:29:51;;;;;;;10.30;7.35;;;;;;;18.85;48.48;101308.41;5081909;28;20111;-70
2023/06/13 05:32:16;;;;;;;10.13;8.13;;;;;;;18.88;47.86;101305.63;5076987;28;20492;-70
2023/06/13 05:34:42;;;;;;;12.43;7.43;;;;;;;19.00;48.02;101313.84;5066485;28;20040;-69
2023/06/13 05:37:10;;;;;;;9.73;7.28;;;;;;;19.00;48.00;101303.28;5067644;28;20024;-69
2023/06/13 05:39:37;;;;;;;8.50;7.13;;;;;;;18.96;47.33;101297.28;5079772;28;20025;-69
2023/06/13 05:42:02;;;;;;;11.60;7.40;;;;;;;19.07;47.54;101304.69;5082233;28;20056;-69
2023/06/13 05:44:27;;;;;;;11.68;7.10;;;;;;;19.12;48.18;101305.28;5081966;28;20060;-69
2023/06/13 05:46:53;;;;;;;10.43;7.13;;;;;;;19.19;47.28;101309.31;5084660;28;20078;-69
2023/06/13 05:49:18;;;;;;;12.50;7.20;;;;;;;19.23;47.18;101315.31;5080731;28;20476;-69
2023/06/13 05:51:43;;;;;;;10.15;7.20;;;;;;;19.28;47.70;101314.13;5087217;28;20032;-69
2023/06/13 05:54:09;;;;;;;11.52;6.82;;;;;;;19.36;47.05;101311.97;5068419;28;20027;-69
2023/06/13 05:56:36;;;;;;;10.57;7.03;;;;;;;19.41;47.19;101315.19;5081281;28;20028;-69
2023/06/13 05:59:01;;;;;;;16.33;7.32;;;;;;;19.47;46.92;101314.03;5083486;28;20027;-69
2023/06/13 06:01:29;;;;;;;13.35;6.47;;;;;;;19.47;46.37;101314.03;5080962;28;20024;-69
2023/06/13 06:03:54;;;;;;;8.73;7.35;;;;;;;19.54;46.60;101312.75;5082769;28;20034;-70
2023/06/13 06:06:20;;;;;;;9.65;7.07;;;;;;;19.61;47.05;101315.94;5083543;28;20111;-69
2023/06/13 06:08:45;;;;;;;14.82;8.18;;;;;;;19.72;46.41;101328.59;5080331;28;20468;-69
2023/06/13 06:11:10;;;;;;;12.05;7.70;;;;;;;19.72;46.14;101324.19;5085189;28;20021;-69
2023/06/13 06:13:36;;;;;;;15.98;7.82;;;;;;;19.72;45.35;101332.13;5080104;28;20043;-69
2023/06/13 06:16:01;;;;;;;15.35;8.00;;;;;;;19.68;46.59;101319.97;5085513;28;20032;-69
2023/06/13 06:18:26;;;;;;;17.17;7.68;;;;;;;19.75;45.98;101324.03;5080537;28;20414;-69
2023/06/13 06:20:51;;;;;;;12.77;7.88;;;;;;;19.80;45.71;101324.59;5086581;28;20035;-70
2023/06/13 06:23:17;;;;;;;12.75;8.00;;;;;;;19.88;46.60;101325.06;5083001;28;20485;-69
2023/06/13 06:25:42;;;;;;;11.20;7.80;;;;;;;19.85;46.29;101309.34;5088542;28;20028;-69
2023/06/13 06:28:08;;;;;;;12.73;7.95;;;;;;;19.98;45.69;101311.28;5085512;28;20044;-69
2023/06/13 06:30:35;;;;;;;22.08;7.65;;;;;;;20.06;45.37;101317.03;5086149;28;20028;-69
2023/06/13 06:33:00;;;;;;;15.05;7.50;;;;;;;20.10;45.37;101321.22;5086834;28;20032;-69
2023/06/13 06:35:26;;;;;;;9.50;7.53;;;;;;;20.18;46.19;101312.88;5085024;28;20111;-69
2023/06/13 06:37:51;;;;;;;12.77;7.45;;;;;;;20.26;46.16;101314.13;5090010;28;20494;-69
2023/06/13 06:40:17;;;;;;;13.93;6.97;;;;;;;20.30;46.48;101323.59;5085319;28;20035;-69
2023/06/13 06:42:42;;;;;;;11.80;7.00;;;;;;;20.37;46.05;101321.44;5086184;28;20032;-70
2023/06/13 06:45:12;;;;;;;16.45;7.82;;;;;;;20.42;45.56;101316.75;5073249;28;20032;-69
2023/06/13 06:47:37;;;;;;;9.57;7.00;;;;;;;20.48;45.50;101312.91;5086135;28;20028;-69
2023/06/13 06:50:03;;;;;;;12.35;8.07;;;;;;;20.56;45.05;101314.19;5086232;28;20023;-69
2023/06/13 06:52:28;;;;;;;11.00;7.15;;;;;;;20.58;44.04;101307.00;5083502;28;20032;-69
2023/06/13 06:54:54;;;;;;;13.93;7.28;;;;;;;20.61;44.83;101306.00;5076851;28;20055;-69
2023/06/13 06:57:19;;;;;;;15.57;7.38;;;;;;;20.66;44.72;101301.25;5085810;28;20099;-69
2023/06/13 06:59:44;;;;;;;9.57;6.97;;;;;;;20.68;44.51;101307.34;5083868;28;20044;-69
2023/06/13 07:02:10;;;;;;;16.05;8.20;;;;;;;20.74;43.90;101314.06;5086657;28;20357;-69
2023/06/13 07:04:35;;;;;;;13.70;7.05;;;;;;;20.80;45.17;101303.97;5083255;28;20031;-69
2023/06/13 07:07:01;;;;;;;10.55;7.05;;;;;;;20.87;44.31;101308.91;5086211;28;20024;-69
2023/06/13 07:09:26;;;;;;;11.93;7.75;;;;;;;20.86;43.82;101307.19;5085679;28;20044;-69
2023/06/13 07:11:53;;;;;;;10.55;7.22;;;;;;;20.96;44.42;101305.69;5081181;28;20028;-69
2023/06/13 07:14:19;;;;;;;9.60;6.90;;;;;;;20.98;45.72;101306.47;5070174;28;20082;-70
2023/06/13 07:16:44;;;;;;;12.73;7.20;;;;;;;21.09;44.63;101325.25;5083043;28;20016;-70
2023/06/13 07:19:09;;;;;;;11.10;7.80;;;;;;;21.12;44.49;101321.53;5077592;28;20077;-70
2023/06/13 07:21:35;;;;;;;10.20;7.63;;;;;;;21.16;43.76;101323.06;5086401;28;20043;-69
2023/06/13 07:24:01;;;;;;;12.52;8.30;;;;;;;21.18;43.28;101324.66;5076565;28;20455;-73
2023/06/13 07:26:26;;;;;;;13.05;7.50;;;;;;;21.27;44.29;101325.91;5078764;28;20020;-72
2023/06/13 07:28:52;;;;;;;12.95;7.47;;;;;;;21.31;43.61;101313.31;5074470;28;20506;-72
2023/06/13 07:31:17;;;;;;;13.07;7.38;;;;;;;21.38;44.08;101309.38;5083153;28;20032;-72
2023/06/13 07:33:42;;;;;;;8.73;7.18;;;;;;;21.42;44.25;101310.91;5062177;28;20040;-73
2023/06/13 07:36:08;;;;;;;10.20;7.45;;;;;;;21.57;43.08;101320.56;5081181;28;20036;-72
2023/06/13 07:38:33;;;;;;;15.55;8.60;;;;;;;21.57;43.32;101312.59;5080074;28;20032;-72
2023/06/13 07:40:58;;;;;;;10.23;7.93;;;;;;;21.60;44.74;101315.06;5086292;28;20043;-73
2023/06/13 07:43:24;;;;;;;10.23;7.32;;;;;;;21.66;43.41;101311.19;5088435;28;20538;-72
2023/06/13 07:45:49;;;;;;;10.68;7.70;;;;;;;21.71;42.87;101312.63;5073158;28;20024;-72
2023/06/13 07:48:16;;;;;;;15.90;7.90;;;;;;;21.78;42.31;101312.19;5085276;28;20028;-73
2023/06/13 07:50:42;;;;;;;15.73;7.70;;;;;;;21.90;42.87;101306.13;5084065;28;20024;-72
2023/06/13 07:53:09;;;;;;;12.68;7.65;;;;;;;21.91;43.27;101310.50;5072543;28;20025;-72
2023/06/13 07:55:36;;;;;;;10.77;7.55;;;;;;;21.98;43.64;101310.00;5086339;28;20028;-73
2023/06/13 07:58:01;;;;;;;10.32;7.50;;;;;;;22.10;42.46;101305.69;5082097;28;20024;-73
2023/06/13 08:00:26;;;;;;;11.52;7.32;;;;;;;22.20;43.41;101312.16;5087390;28;20028;-73
2023/06/13 08:02:52;;;;;;;12.57;6.80;;;;;;;22.32;43.11;101309.66;5082168;28;20512;-73
2023/06/13 08:05:17;;;;;;;12.25;7.18;;;;;;;22.40;43.60;101312.69;5086623;28;20047;-73
2023/06/13 08:07:42;;;;;;;13.35;6.78;;;;;;;22.52;42.08;101305.69;5077260;28;20039;-72
2023/06/13 08:10:08;;;;;;;9.77;7.45;;;;;;;22.58;42.20;101321.22;5078163;28;20030;-73
2023/06/13 08:12:34;;;;;;;8.60;7.63;;;;;;;22.63;41.75;101317.31;5077491;28;20035;-72
2023/06/13 08:14:59;;;;;;;12.88;7.93;;;;;;;22.72;41.96;101314.97;5071496;28;20044;-72
2023/06/13 08:17:24;;;;;;;15.70;7.50;;;;;;;22.73;42.28;101314.03;5076175;28;20029;-73
2023/06/13 08:19:50;;;;;;;10.27;7.43;;;;;;;22.71;41.31;101313.28;5066156;28;20040;-73
2023/06/13 08:22:17;;;;;;;10.38;7.25;;;;;;;22.76;41.75;101312.03;5074211;28;20028;-73
2023/06/13 08:24:42;;;;;;;13.20;7.70;;;;;;;22.84;41.67;101316.81;5079594;28;20028;-73
2023/06/13 08:27:10;;;;;;;10.38;7.30;;;;;;;22.89;41.29;101304.09;5081404;28;20031;-74
2023/06/13 08:29:35;;;;;;;13.57;8.10;;;;;;;22.97;41.25;101309.75;5074868;28;20040;-73
2023/06/13 08:32:01;;;;;;;11.52;7.00;;;;;;;23.08;41.03;101316.97;5070927;28;20078;-73
2023/06/13 08:34:26;;;;;;;8.85;6.95;;;;;;;23.06;42.57;101293.16;5083464;28;20028;-73
2023/06/13 08:36:51;;;;;;;14.25;7.00;;;;;;;23.23;42.30;101305.28;5072579;28;20039;-73
2023/06/13 08:39:17;;;;;;;9.10;6.80;;;;;;;23.34;41.39;101300.06;5074488;28;20020;-72
2023/06/13 08:41:44;;;;;;;10.23;7.97;;;;;;;23.41;41.40;101304.97;5070131;28;20036;-72
2023/06/13 08:44:10;;;;;;;10.80;7.07;;;;;;;23.44;40.31;101302.09;5080903;28;20021;-72
2023/06/13 08:46:36;;;;;;;9.70;7.25;;;;;;;23.55;40.27;101297.72;5071844;28;20024;-70
2023/06/13 08:49:02;;;;;;;10.68;6.75;;;;;;;23.69;40.13;101295.91;5080108;28;20383;-70
2023/06/13 08:51:30;;;;;;;9.05;6.82;;;;;;;23.71;40.17;101294.00;5073017;28;20023;-70
2023/06/13 08:54:02;;;;;;;10.70;6.93;;;;;;;23.89;39.57;101294.47;5070163;28;20467;-70
2023/06/13 08:56:31;;;;;;;12.43;6.88;;;;;;;24.01;39.31;101290.94;5072783;28;20021;-71
2023/06/13 08:59:05;;;;;;;15.07;6.70;;;;;;;24.10;38.27;101290.25;5082088;28;20027;-70
2023/06/13 09:01:31;;;;;;;10.20;7.25;;;;;;;24.18;36.75;101287.03;5081458;28;20033;-71
2023/06/13 09:03:57;;;;;;;9.98;6.50;;;;;;;24.24;38.89;101275.94;5083323;28;20039;-70
2023/06/13 09:06:23;;;;;;;13.85;6.75;;;;;;;24.32;36.79;101276.19;5083544;28;20121;-71
2023/06/13 09:08:50;;;;;;;11.52;6.90;;;;;;;24.39;37.97;101280.09;5082203;28;20103;-71
2023/06/13 09:11:18;;;;;;;10.30;6.35;;;;;;;24.50;37.95;101276.69;5084607;28;20080;-71
2023/06/13 09:13:45;;;;;;;10.45;7.25;;;;;;;24.56;37.13;101276.22;5081119;28;20037;-70
2023/06/13 09:16:11;;;;;;;11.75;6.88;;;;;;;24.67;37.85;101278.06;5087002;28;20394;-71
2023/06/13 09:18:40;;;;;;;13.93;6.75;;;;;;;24.76;37.02;101274.69;5075905;28;20020;-71
2023/06/13 09:21:06;;;;;;;12.40;6.93;;;;;;;24.96;38.49;101282.00;5087778;28;20384;-71
2023/06/13 09:23:32;;;;;;;10.32;6.47;;;;;;;25.05;37.40;101283.13;5080716;28;20043;-71
2023/06/13 09:25:59;;;;;;;10.02;6.82;;;;;;;25.07;36.35;101283.00;5086718;28;20062;-71
2023/06/13 09:28:29;;;;;;;14.05;6.93;;;;;;;25.11;36.75;101273.78;5080523;28;20043;-71
2023/06/13 09:30:56;;;;;;;9.27;6.35;;;;;;;25.21;35.54;101274.78;5087272;28;20043;-71
2023/06/13 09:33:22;;;;;;;9.93;6.40;;;;;;;25.29;36.89;101264.38;5080184;28;20028;-70
2023/06/13 09:35:48;;;;;;;8.98;6.32;;;;;;;25.48;36.37;101282.44;5085601;28;20028;-71
2023/06/13 09:38:14;;;;;;;7.82;6.45;;;;;;;25.49;34.30;101275.28;5082623;28;20035;-71
2023/06/13 09:40:45;;;;;;;10.20;6.30;;;;;;;25.55;35.76;101272.13;5082663;28;20063;-71
2023/06/13 09:43:13;;;;;;;6.82;5.85;;;;;;;25.62;33.65;101276.00;5083435;28;20382;-71
2023/06/13 09:45:38;;;;;;;7.25;5.85;;;;;;;25.72;34.37;101271.63;5071268;28;20073;-71
2023/06/13 09:48:04;;;;;;;11.88;6.63;;;;;;;25.73;32.80;101275.13;5084039;28;20028;-71
2023/06/13 09:50:31;;;;;;;9.55;6.00;;;;;;;25.87;35.04;101265.09;5082826;28;20056;-70
2023/06/13 09:52:57;;;;;;;10.05;6.53;;;;;;;26.02;34.61;101260.28;5073661;28;20029;-71
2023/06/13 09:55:22;;;;;;;10.55;6.47;;;;;;;26.16;34.05;101267.19;5084214;28;20021;-71
2023/06/13 09:57:51;;;;;;;11.07;6.35;;;;;;;26.29;33.69;101267.88;5084012;28;20024;-71
2023/06/13 10:00:16;;;;;;;8.60;6.25;;;;;;;26.36;32.24;101265.53;5088847;28;20024;-71
2023/06/13 10:02:43;;;;;;;8.93;5.97;;;;;;;26.34;32.39;101262.97;5085571;28;20035;-71
2023/06/13 10:05:09;;;;;;;10.55;5.88;;;;;;;26.45;33.15;101258.56;5087939;28;20043;-71
2023/06/13 10:07:34;;;;;;;8.60;5.50;;;;;;;26.59;33.54;101258.28;5087095;28;20459;-71
2023/06/13 10:10:00;;;;;;;8.20;6.70;;;;;;;26.58;32.98;101256.56;5084305;28;20395;-70
2023/06/13 10:12:26;;;;;;;10.82;5.78;;;;;;;26.64;31.48;101266.75;5087848;28;20028;-71
2023/06/13 10:14:56;;;;;;;10.40;6.07;;;;;;;26.66;30.08;101271.97;5084707;28;20059;-70
2023/06/13 10:17:22;;;;;;;7.40;5.60;;;;;;;26.72;32.02;101264.28;5087499;28;20398;-70
2023/06/13 10:19:57;;;;;;;7.43;6.00;;;;;;;26.81;31.23;101260.84;5085361;28;20374;-70
2023/06/13 10:22:23;;;;;;;8.23;5.72;;;;;;;27.02;32.06;101262.63;5086462;28;20486;-71
2023/06/13 10:24:51;;;;;;;9.30;5.22;;;;;;;27.05;31.02;101252.50;5085827;28;20036;-70
2023/06/13 10:27:20;;;;;;;6.45;5.75;;;;;;;27.05;30.62;101257.88;5086655;28;20027;-70
2023/06/13 10:30:00;;;;;;;7.15;5.40;;;;;;;27.05;30.26;101263.22;5086024;28;20472;-71
2023/06/13 10:32:31;;;;;;;7.70;5.47;;;;;;;27.07;30.58;101257.72;5087261;28;20032;-71
2023/06/13 10:35:24;;;;;;;10.07;5.80;;;;;;;27.23;30.76;101250.09;5085505;28;20122;-71
2023/06/13 10:37:57;;;;;;;6.97;5.43;;;;;;;27.43;31.03;101258.19;5080361;28;20445;-71
2023/06/13 10:40:44;;;;;;;10.48;5.70;;;;;;;27.43;30.08;101253.69;5085909;28;20032;-70
2023/06/13 10:43:12;;;;;;;7.28;5.80;;;;;;;27.43;30.57;101256.34;5086285;28;20028;-71
2023/06/13 10:45:40;;;;;;;7.35;5.30;;;;;;;27.54;30.15;101258.09;5073994;28;20085;-71
2023/06/13 10:48:06;;;;;;;8.18;5.80;;;;;;;27.53;30.20;101259.94;5086838;28;20459;-71
2023/06/13 10:50:40;;;;;;;7.00;5.35;;;;;;;27.58;30.52;101258.69;5085417;28;20028;-70
2023/06/13 10:53:08;;;;;;;9.35;5.70;;;;;;;27.55;29.54;101251.75;5074878;28;20028;-70
2023/06/13 10:55:37;;;;;;;11.27;6.25;;;;;;;27.70;31.80;101255.75;5087782;28;20468;-71
2023/06/13 10:58:10;;;;;;;8.00;5.40;;;;;;;27.80;29.48;101254.97;5082684;28;20024;-71
2023/06/13 11:00:37;;;;;;;8.07;5.68;;;;;;;27.79;28.24;101251.41;5089714;28;20028;-71
2023/06/13 11:03:12;;;;;;;9.73;5.57;;;;;;;27.85;28.63;101247.34;5082387;28;20104;-71
2023/06/13 11:05:44;;;;;;;6.75;5.68;;;;;;;27.86;28.27;101241.88;5089385;28;20024;-71
2023/06/13 11:08:27;;;;;;;6.03;5.43;;;;;;;28.00;28.79;101244.13;5082387;28;20024;-71
2023/06/13 11:10:55;;;;;;;8.43;5.72;;;;;;;28.18;28.23;101235.38;5078891;28;20021;-71
2023/06/13 11:13:22;;;;;;;8.70;6.00;;;;;;;28.38;26.76;101233.53;5074276;28;20032;-71
2023/06/13 11:15:50;;;;;;;7.38;5.45;;;;;;;28.41;28.53;101235.97;5081942;28;20024;-70
2023/06/13 11:18:18;;;;;;;8.45;5.43;;;;;;;28.48;27.47;101237.09;5078804;28;20073;-70
2023/06/13 11:20:50;;;;;;;12.82;5.72;;;;;;;28.53;28.08;101232.16;5073612;28;20036;-71